PDT,Max TemperatureF,Mean TemperatureF,Min TemperatureF,Max Dew PointF,MeanDew PointF,Min DewpointF,Max Humidity, Mean Humidity, Min Humidity, Max Sea Level PressureIn, Mean Sea Level PressureIn, Min Sea Level PressureIn, Max VisibilityMiles, Mean VisibilityMiles, Min VisibilityMiles, Max Wind SpeedMPH, Mean Wind SpeedMPH, Max Gust SpeedMPH,PrecipitationIn, CloudCover, Events, WindDirDegrees
2011-10-1,60,56,52,55,51,48,100,86,72,29.98,29.93,29.86,10,10,7,12,4,14,0.02,7,Rain,238
2011-10-2,65,58,51,54,52,50,100,84,67,29.95,29.87,29.78,10,10,6,16,4,22,0.05,8,Rain,132
2011-10-3,62,58,54,54,52,47,100,86,72,29.83,29.80,29.78,10,10,7,17,8,24,0.06,5,Rain,167
2011-10-4,57,52,47,50,48,46,100,84,67,29.77,29.56,29.40,10,10,5,13,7,20,0.28,7,Rain-Thunderstorm,135
2011-10-5,59,53,46,52,48,45,100,84,67,29.75,29.56,29.42,10,9,2,21,6,25,0.13,6,Rain,178
2011-10-6,60,53,46,54,50,46,100,86,72,30.10,29.97,29.76,10,9,4,14,4,17,0.00,7,Rain,233
2011-10-7,59,56,53,56,54,52,100,93,86,30.19,30.14,30.09,10,7,2,17,8,22,0.15,8,Rain,206
2011-10-8,62,58,54,56,53,49,100,84,67,30.20,30.16,30.10,10,9,3,17,5,23,T,7,Rain,184
2011-10-9,61,57,53,54,52,47,100,82,64,30.10,29.99,29.79,10,7,1,10,2,14,0.10,8,Rain,49
2011-10-10,61,57,53,59,53,49,93,85,77,29.77,29.60,29.52,10,8,2,22,9,31,0.17,8,Rain,173
2011-10-11,61,58,54,55,53,49,93,87,80,30.12,29.84,29.58,10,8,2,28,12,41,0.27,7,Rain,217
2011-10-12,61,54,47,52,50,46,100,82,64,30.24,30.21,30.13,10,8,6,14,5,17,0.00,4,,205
2011-10-13,59,53,47,49,48,46,100,81,62,30.23,30.11,29.98,10,10,8,12,5,16,0.00,3,,66
2011-10-14,62,57,52,52,49,47,83,72,60,29.98,29.95,29.93,10,10,9,14,7,18,0.00,4,,24
2011-10-15,61,52,42,50,46,41,100,79,57,30.05,30.02,29.99,10,8,2,12,5,14,0.00,1,,35
2011-10-16,58,49,39,47,44,39,100,81,62,30.32,30.17,30.02,10,9,2,15,5,18,0.00,0,,298
2011-10-17,63,51,38,51,43,37,100,80,60,30.38,30.34,30.20,10,7,0,13,5,16,0.00,3,Fog,93
2011-10-18,76,62,47,51,47,43,86,60,33,30.19,30.02,29.91,10,10,7,16,8,20,0.00,0,,85
2011-10-19,59,55,51,55,52,47,93,80,67,30.12,30.03,29.91,10,10,8,21,9,29,0.00,7,,226
2011-10-20,59,55,50,53,51,48,100,89,77,30.11,30.09,30.05,10,9,6,8,2,21,0.02,7,Rain,99
2011-10-21,59,56,53,57,54,50,100,90,80,30.25,30.20,30.10,10,6,1,23,9,35,0.13,8,Rain,195
2011-10-22,60,59,57,58,57,55,100,97,93,30.24,30.21,30.17,10,3,1,22,14,36,0.65,8,Rain,216
2011-10-23,58,54,49,56,50,44,100,86,72,30.22,30.19,30.15,10,6,0,29,2,74,0.00,5,Fog-Rain,301
2011-10-24,57,48,39,49,42,37,100,81,61,30.39,30.28,30.20,10,7,1,14,6,17,T,2,Rain,108
2011-10-25,58,46,34,45,39,34,100,79,57,30.44,30.40,30.37,10,5,0,14,4,15,T,3,Fog-Snow,98
2011-10-26,55,46,36,49,42,36,93,82,71,30.35,30.29,30.25,10,10,5,14,4,33,0.01,5,Rain,156
2011-10-27,57,46,35,44,39,34,100,81,61,30.32,30.26,30.03,10,3,0,17,6,21,0.00,3,Fog,108
2011-10-28,58,50,42,55,49,40,100,89,77,30.14,30.00,29.92,10,6,1,29,9,41,0.72,6,Rain,200
2011-10-29,60,52,43,53,47,43,100,84,67,30.29,30.22,30.14,10,4,0,10,4,15,0.00,5,Fog,88
2011-10-30,59,55,51,57,54,44,100,93,86,30.27,30.13,30.07,10,6,1,20,8,29,0.24,8,Rain,252
2011-10-31,55,49,42,47,42,39,100,80,59,30.48,30.40,30.28,10,10,8,22,7,26,0.03,3,Rain,328